sensor_id;sensor_type;location;lat;lon;timestamp;P1;durP1;ratioP1;P2;durP2;ratioP2
27983;SDS011;15317;50.360;8.726;2024-03-02T00:01:35;17.33;;;15.70;;
27983;SDS011;15317;50.360;8.726;2024-03-02T00:06:39;16.57;;;14.97;;
27983;SDS011;15317;50.360;8.726;2024-03-02T00:11:43;17.43;;;15.83;;
27983;SDS011;15317;50.360;8.726;2024-03-02T00:16:46;17.03;;;15.43;;
27983;SDS011;15317;50.360;8.726;2024-03-02T00:21:50;15.43;;;13.93;;
27983;SDS011;15317;50.360;8.726;2024-03-02T00:26:54;16.63;;;15.17;;
27983;SDS011;15317;50.360;8.726;2024-03-02T00:31:57;16.67;;;14.97;;
27983;SDS011;15317;50.360;8.726;2024-03-02T00:37:01;16.80;;;15.27;;
27983;SDS011;15317;50.360;8.726;2024-03-02T00:42:06;17.53;;;15.83;;
27983;SDS011;15317;50.360;8.726;2024-03-02T00:47:10;18.23;;;16.37;;
27983;SDS011;15317;50.360;8.726;2024-03-02T00:52:13;17.10;;;15.50;;
27983;SDS011;15317;50.360;8.726;2024-03-02T00:57:18;18.40;;;16.63;;
27983;SDS011;15317;50.360;8.726;2024-03-02T01:02:22;19.30;;;17.50;;
27983;SDS011;15317;50.360;8.726;2024-03-02T01:07:25;19.03;;;17.23;;
27983;SDS011;15317;50.360;8.726;2024-03-02T01:12:29;20.77;;;18.67;;
27983;SDS011;15317;50.360;8.726;2024-03-02T01:17:32;20.77;;;18.67;;
27983;SDS011;15317;50.360;8.726;2024-03-02T01:22:36;19.53;;;17.67;;
27983;SDS011;15317;50.360;8.726;2024-03-02T01:27:40;18.87;;;17.10;;
27983;SDS011;15317;50.360;8.726;2024-03-02T01:32:45;18.80;;;17.10;;
27983;SDS011;15317;50.360;8.726;2024-03-02T01:37:48;19.03;;;17.23;;
27983;SDS011;15317;50.360;8.726;2024-03-02T01:42:53;22.90;;;20.53;;
27983;SDS011;15317;50.360;8.726;2024-03-02T01:47:57;22.33;;;20.13;;
27983;SDS011;15317;50.360;8.726;2024-03-02T01:53:02;22.47;;;20.27;;
27983;SDS011;15317;50.360;8.726;2024-03-02T01:58:06;23.07;;;20.73;;
27983;SDS011;15317;50.360;8.726;2024-03-02T02:03:10;23.03;;;20.63;;
27983;SDS011;15317;50.360;8.726;2024-03-02T02:08:13;24.53;;;22.03;;
27983;SDS011;15317;50.360;8.726;2024-03-02T02:13:18;24.73;;;22.17;;
27983;SDS011;15317;50.360;8.726;2024-03-02T02:18:21;24.07;;;21.57;;
27983;SDS011;15317;50.360;8.726;2024-03-02T02:23:26;24.93;;;22.33;;
27983;SDS011;15317;50.360;8.726;2024-03-02T02:28:29;28.17;;;24.95;;
27983;SDS011;15317;50.360;8.726;2024-03-02T02:33:32;26.93;;;24.13;;
27983;SDS011;15317;50.360;8.726;2024-03-02T02:38:38;32.97;;;28.40;;
27983;SDS011;15317;50.360;8.726;2024-03-02T02:43:45;31.93;;;28.20;;
27983;SDS011;15317;50.360;8.726;2024-03-02T02:48:48;34.07;;;29.83;;
27983;SDS011;15317;50.360;8.726;2024-03-02T02:53:54;33.37;;;28.77;;
27983;SDS011;15317;50.360;8.726;2024-03-02T02:58:57;33.87;;;27.67;;
27983;SDS011;15317;50.360;8.726;2024-03-02T03:04:00;30.30;;;26.80;;
27983;SDS011;15317;50.360;8.726;2024-03-02T03:09:05;33.23;;;29.57;;
27983;SDS011;15317;50.360;8.726;2024-03-02T03:14:08;33.53;;;28.97;;
27983;SDS011;15317;50.360;8.726;2024-03-02T03:19:12;35.83;;;30.37;;
27983;SDS011;15317;50.360;8.726;2024-03-02T03:24:16;37.00;;;31.13;;
27983;SDS011;15317;50.360;8.726;2024-03-02T03:29:20;36.77;;;31.43;;
27983;SDS011;15317;50.360;8.726;2024-03-02T03:34:23;37.80;;;31.80;;
27983;SDS011;15317;50.360;8.726;2024-03-02T03:39:27;37.80;;;32.07;;
27983;SDS011;15317;50.360;8.726;2024-03-02T03:44:31;42.13;;;33.27;;
27983;SDS011;15317;50.360;8.726;2024-03-02T03:49:34;40.00;;;33.10;;
27983;SDS011;15317;50.360;8.726;2024-03-02T03:54:39;36.60;;;32.27;;
27983;SDS011;15317;50.360;8.726;2024-03-02T03:59:45;38.33;;;33.40;;
27983;SDS011;15317;50.360;8.726;2024-03-02T04:04:48;37.63;;;33.10;;
27983;SDS011;15317;50.360;8.726;2024-03-02T04:09:53;38.17;;;33.27;;
27983;SDS011;15317;50.360;8.726;2024-03-02T04:14:56;36.00;;;31.93;;
27983;SDS011;15317;50.360;8.726;2024-03-02T04:20:00;38.63;;;33.13;;
27983;SDS011;15317;50.360;8.726;2024-03-02T04:25:05;41.33;;;34.50;;
27983;SDS011;15317;50.360;8.726;2024-03-02T04:30:09;41.53;;;34.57;;
27983;SDS011;15317;50.360;8.726;2024-03-02T04:35:13;44.37;;;34.87;;
27983;SDS011;15317;50.360;8.726;2024-03-02T04:40:18;40.50;;;33.90;;
27983;SDS011;15317;50.360;8.726;2024-03-02T04:45:23;42.07;;;33.90;;
27983;SDS011;15317;50.360;8.726;2024-03-02T04:50:26;37.00;;;32.13;;
27983;SDS011;15317;50.360;8.726;2024-03-02T04:55:31;41.50;;;33.90;;
27983;SDS011;15317;50.360;8.726;2024-03-02T05:01:21;39.70;;;33.33;;
27983;SDS011;15317;50.360;8.726;2024-03-02T05:06:24;37.37;;;32.27;;
27983;SDS011;15317;50.360;8.726;2024-03-02T05:11:29;37.90;;;30.87;;
27983;SDS011;15317;50.360;8.726;2024-03-02T05:16:55;40.83;;;31.90;;
27983;SDS011;15317;50.360;8.726;2024-03-02T05:21:58;40.03;;;32.80;;
27983;SDS011;15317;50.360;8.726;2024-03-02T05:27:03;39.90;;;32.00;;
27983;SDS011;15317;50.360;8.726;2024-03-02T05:32:08;39.23;;;32.83;;
27983;SDS011;15317;50.360;8.726;2024-03-02T05:37:11;36.83;;;31.43;;
27983;SDS011;15317;50.360;8.726;2024-03-02T05:42:16;39.43;;;30.83;;
27983;SDS011;15317;50.360;8.726;2024-03-02T05:47:20;36.70;;;29.67;;
27983;SDS011;15317;50.360;8.726;2024-03-02T05:52:23;32.80;;;27.77;;
27983;SDS011;15317;50.360;8.726;2024-03-02T05:57:28;32.93;;;28.50;;
27983;SDS011;15317;50.360;8.726;2024-03-02T06:02:51;28.60;;;25.07;;
27983;SDS011;15317;50.360;8.726;2024-03-02T06:07:54;28.80;;;25.67;;
27983;SDS011;15317;50.360;8.726;2024-03-02T06:12:59;26.47;;;23.40;;
27983;SDS011;15317;50.360;8.726;2024-03-02T06:18:03;26.70;;;23.90;;
27983;SDS011;15317;50.360;8.726;2024-03-02T06:23:08;26.57;;;23.77;;
27983;SDS011;15317;50.360;8.726;2024-03-02T06:28:13;27.60;;;24.17;;
27983;SDS011;15317;50.360;8.726;2024-03-02T06:33:17;27.83;;;23.00;;
27983;SDS011;15317;50.360;8.726;2024-03-02T06:38:20;26.20;;;23.40;;
27983;SDS011;15317;50.360;8.726;2024-03-02T06:43:25;25.40;;;22.80;;
27983;SDS011;15317;50.360;8.726;2024-03-02T06:48:28;24.60;;;21.67;;
27983;SDS011;15317;50.360;8.726;2024-03-02T06:53:32;23.37;;;20.87;;
27983;SDS011;15317;50.360;8.726;2024-03-02T06:58:37;23.30;;;20.77;;
27983;SDS011;15317;50.360;8.726;2024-03-02T07:03:40;23.33;;;20.93;;
27983;SDS011;15317;50.360;8.726;2024-03-02T07:08:44;23.57;;;21.03;;
27983;SDS011;15317;50.360;8.726;2024-03-02T07:13:49;23.10;;;20.70;;
27983;SDS011;15317;50.360;8.726;2024-03-02T07:18:53;22.27;;;19.93;;
27983;SDS011;15317;50.360;8.726;2024-03-02T07:23:58;21.67;;;19.40;;
27983;SDS011;15317;50.360;8.726;2024-03-02T07:29:02;22.43;;;20.17;;
27983;SDS011;15317;50.360;8.726;2024-03-02T07:34:06;21.30;;;19.10;;
27983;SDS011;15317;50.360;8.726;2024-03-02T07:39:10;21.47;;;19.37;;
27983;SDS011;15317;50.360;8.726;2024-03-02T07:44:14;21.93;;;19.73;;
27983;SDS011;15317;50.360;8.726;2024-03-02T07:49:17;21.67;;;19.47;;
27983;SDS011;15317;50.360;8.726;2024-03-02T07:54:21;21.03;;;18.93;;
27983;SDS011;15317;50.360;8.726;2024-03-02T07:59:25;21.57;;;19.47;;
27983;SDS011;15317;50.360;8.726;2024-03-02T08:04:28;20.97;;;18.73;;
27983;SDS011;15317;50.360;8.726;2024-03-02T08:09:32;19.07;;;17.17;;
27983;SDS011;15317;50.360;8.726;2024-03-02T08:14:36;17.63;;;15.87;;
27983;SDS011;15317;50.360;8.726;2024-03-02T08:19:40;17.80;;;16.10;;
27983;SDS011;15317;50.360;8.726;2024-03-02T08:24:43;18.07;;;16.17;;
27983;SDS011;15317;50.360;8.726;2024-03-02T08:29:48;17.77;;;16.07;;
27983;SDS011;15317;50.360;8.726;2024-03-02T08:34:51;17.47;;;15.83;;
27983;SDS011;15317;50.360;8.726;2024-03-02T08:39:55;18.60;;;16.80;;
27983;SDS011;15317;50.360;8.726;2024-03-02T08:45:00;18.97;;;17.17;;
27983;SDS011;15317;50.360;8.726;2024-03-02T08:50:04;19.80;;;17.90;;
27983;SDS011;15317;50.360;8.726;2024-03-02T08:55:08;18.87;;;17.13;;
27983;SDS011;15317;50.360;8.726;2024-03-02T09:00:14;19.77;;;17.87;;
27983;SDS011;15317;50.360;8.726;2024-03-02T09:05:18;18.87;;;17.07;;
27983;SDS011;15317;50.360;8.726;2024-03-02T09:10:22;19.13;;;17.23;;
27983;SDS011;15317;50.360;8.726;2024-03-02T09:15:30;19.37;;;17.63;;
27983;SDS011;15317;50.360;8.726;2024-03-02T09:20:37;19.60;;;17.80;;
27983;SDS011;15317;50.360;8.726;2024-03-02T09:25:40;18.83;;;17.07;;
27983;SDS011;15317;50.360;8.726;2024-03-02T09:30:45;20.33;;;18.23;;
27983;SDS011;15317;50.360;8.726;2024-03-02T09:35:48;19.63;;;17.73;;
27983;SDS011;15317;50.360;8.726;2024-03-02T09:40:53;19.07;;;17.27;;
27983;SDS011;15317;50.360;8.726;2024-03-02T09:45:57;19.10;;;17.30;;
27983;SDS011;15317;50.360;8.726;2024-03-02T09:51:01;19.83;;;17.83;;
27983;SDS011;15317;50.360;8.726;2024-03-02T09:56:05;18.83;;;17.13;;
27983;SDS011;15317;50.360;8.726;2024-03-02T10:01:10;19.10;;;17.40;;
27983;SDS011;15317;50.360;8.726;2024-03-02T10:06:20;19.50;;;17.67;;
27983;SDS011;15317;50.360;8.726;2024-03-02T10:11:28;18.33;;;16.63;;
27983;SDS011;15317;50.360;8.726;2024-03-02T10:16:34;18.50;;;16.90;;
27983;SDS011;15317;50.360;8.726;2024-03-02T10:21:39;18.10;;;16.40;;
27983;SDS011;15317;50.360;8.726;2024-03-02T10:26:43;17.80;;;16.17;;
27983;SDS011;15317;50.360;8.726;2024-03-02T10:31:48;17.87;;;16.17;;
27983;SDS011;15317;50.360;8.726;2024-03-02T10:36:51;19.30;;;17.50;;
27983;SDS011;15317;50.360;8.726;2024-03-02T10:41:55;18.57;;;16.87;;
27983;SDS011;15317;50.360;8.726;2024-03-02T10:47:01;17.47;;;15.97;;
27983;SDS011;15317;50.360;8.726;2024-03-02T10:52:05;16.77;;;15.27;;
27983;SDS011;15317;50.360;8.726;2024-03-02T10:57:10;16.63;;;15.23;;
27983;SDS011;15317;50.360;8.726;2024-03-02T11:02:18;16.73;;;15.23;;
27983;SDS011;15317;50.360;8.726;2024-03-02T11:07:25;16.97;;;15.30;;
27983;SDS011;15317;50.360;8.726;2024-03-02T11:12:31;15.97;;;14.47;;
27983;SDS011;15317;50.360;8.726;2024-03-02T11:17:42;15.77;;;14.37;;
27983;SDS011;15317;50.360;8.726;2024-03-02T11:22:47;15.17;;;13.80;;
27983;SDS011;15317;50.360;8.726;2024-03-02T11:27:58;14.00;;;12.80;;
27983;SDS011;15317;50.360;8.726;2024-03-02T11:33:05;13.17;;;12.03;;
27983;SDS011;15317;50.360;8.726;2024-03-02T11:38:11;12.33;;;11.23;;
27983;SDS011;15317;50.360;8.726;2024-03-02T11:43:14;11.93;;;10.90;;
27983;SDS011;15317;50.360;8.726;2024-03-02T11:48:18;12.30;;;11.33;;
27983;SDS011;15317;50.360;8.726;2024-03-02T11:53:22;11.70;;;10.70;;
27983;SDS011;15317;50.360;8.726;2024-03-02T11:58:26;11.00;;;10.00;;
27983;SDS011;15317;50.360;8.726;2024-03-02T12:03:31;11.07;;;10.17;;
27983;SDS011;15317;50.360;8.726;2024-03-02T12:08:36;11.13;;;10.23;;
27983;SDS011;15317;50.360;8.726;2024-03-02T12:13:39;12.23;;;11.23;;
27983;SDS011;15317;50.360;8.726;2024-03-02T12:18:44;9.57;;;8.77;;
27983;SDS011;15317;50.360;8.726;2024-03-02T12:23:47;11.10;;;10.00;;
27983;SDS011;15317;50.360;8.726;2024-03-02T12:28:51;9.53;;;8.73;;
27983;SDS011;15317;50.360;8.726;2024-03-02T12:33:57;9.20;;;8.40;;
27983;SDS011;15317;50.360;8.726;2024-03-02T12:39:01;9.33;;;8.63;;
27983;SDS011;15317;50.360;8.726;2024-03-02T12:44:04;9.13;;;8.30;;
27983;SDS011;15317;50.360;8.726;2024-03-02T12:49:10;7.93;;;7.33;;
27983;SDS011;15317;50.360;8.726;2024-03-02T12:54:14;6.83;;;6.33;;
27983;SDS011;15317;50.360;8.726;2024-03-02T12:59:18;8.63;;;7.93;;
27983;SDS011;15317;50.360;8.726;2024-03-02T13:04:25;8.60;;;7.87;;
27983;SDS011;15317;50.360;8.726;2024-03-02T13:09:29;7.47;;;6.77;;
27983;SDS011;15317;50.360;8.726;2024-03-02T13:14:35;6.27;;;5.73;;
27983;SDS011;15317;50.360;8.726;2024-03-02T13:19:40;5.93;;;5.37;;
27983;SDS011;15317;50.360;8.726;2024-03-02T13:24:53;4.90;;;4.50;;
27983;SDS011;15317;50.360;8.726;2024-03-02T13:29:57;5.87;;;5.37;;
27983;SDS011;15317;50.360;8.726;2024-03-02T13:35:02;5.73;;;5.23;;
27983;SDS011;15317;50.360;8.726;2024-03-02T13:40:06;6.20;;;5.67;;
27983;SDS011;15317;50.360;8.726;2024-03-02T13:45:15;6.30;;;5.80;;
27983;SDS011;15317;50.360;8.726;2024-03-02T13:50:21;9.60;;;6.83;;
27983;SDS011;15317;50.360;8.726;2024-03-02T13:55:24;6.63;;;6.13;;
27983;SDS011;15317;50.360;8.726;2024-03-02T14:00:27;6.70;;;6.10;;
27983;SDS011;15317;50.360;8.726;2024-03-02T14:05:33;6.60;;;6.10;;
27983;SDS011;15317;50.360;8.726;2024-03-02T14:10:36;5.23;;;4.80;;
27983;SDS011;15317;50.360;8.726;2024-03-02T14:15:40;6.63;;;4.60;;
27983;SDS011;15317;50.360;8.726;2024-03-02T14:20:45;5.40;;;5.00;;
27983;SDS011;15317;50.360;8.726;2024-03-02T14:25:53;5.30;;;4.90;;
27983;SDS011;15317;50.360;8.726;2024-03-02T14:30:57;5.03;;;4.63;;
27983;SDS011;15317;50.360;8.726;2024-03-02T14:36:04;4.30;;;4.00;;
27983;SDS011;15317;50.360;8.726;2024-03-02T14:41:08;4.10;;;3.80;;
27983;SDS011;15317;50.360;8.726;2024-03-02T14:46:11;4.27;;;3.97;;
27983;SDS011;15317;50.360;8.726;2024-03-02T14:51:16;4.93;;;4.07;;
27983;SDS011;15317;50.360;8.726;2024-03-02T14:56:19;5.87;;;4.20;;
27983;SDS011;15317;50.360;8.726;2024-03-02T15:01:22;5.20;;;3.80;;
27983;SDS011;15317;50.360;8.726;2024-03-02T15:06:28;3.70;;;3.40;;
27983;SDS011;15317;50.360;8.726;2024-03-02T15:11:31;3.83;;;3.53;;
27983;SDS011;15317;50.360;8.726;2024-03-02T15:16:34;4.70;;;3.97;;
27983;SDS011;15317;50.360;8.726;2024-03-02T15:21:39;4.17;;;3.87;;
27983;SDS011;15317;50.360;8.726;2024-03-02T15:26:42;5.80;;;4.90;;
27983;SDS011;15317;50.360;8.726;2024-03-02T15:31:45;4.50;;;4.10;;
27983;SDS011;15317;50.360;8.726;2024-03-02T15:36:50;4.90;;;4.17;;
27983;SDS011;15317;50.360;8.726;2024-03-02T15:41:54;4.23;;;3.83;;
27983;SDS011;15317;50.360;8.726;2024-03-02T15:46:57;3.70;;;3.40;;
27983;SDS011;15317;50.360;8.726;2024-03-02T15:52:02;4.50;;;3.67;;
27983;SDS011;15317;50.360;8.726;2024-03-02T15:57:06;6.40;;;5.27;;
27983;SDS011;15317;50.360;8.726;2024-03-02T16:02:09;8.37;;;7.13;;
27983;SDS011;15317;50.360;8.726;2024-03-02T16:07:14;7.13;;;4.97;;
27983;SDS011;15317;50.360;8.726;2024-03-02T16:12:17;4.80;;;4.40;;
27983;SDS011;15317;50.360;8.726;2024-03-02T16:17:20;4.87;;;4.47;;
27983;SDS011;15317;50.360;8.726;2024-03-02T16:22:25;4.50;;;4.10;;
27983;SDS011;15317;50.360;8.726;2024-03-02T16:27:28;4.70;;;4.30;;
27983;SDS011;15317;50.360;8.726;2024-03-02T16:32:31;4.77;;;4.33;;
27983;SDS011;15317;50.360;8.726;2024-03-02T16:37:36;4.00;;;3.70;;
27983;SDS011;15317;50.360;8.726;2024-03-02T16:42:40;4.80;;;4.33;;
27983;SDS011;15317;50.360;8.726;2024-03-02T16:47:44;6.77;;;6.07;;
27983;SDS011;15317;50.360;8.726;2024-03-02T16:52:49;5.83;;;5.33;;
27983;SDS011;15317;50.360;8.726;2024-03-02T16:57:52;5.13;;;4.73;;
27983;SDS011;15317;50.360;8.726;2024-03-02T17:02:55;6.03;;;5.50;;
27983;SDS011;15317;50.360;8.726;2024-03-02T17:07:59;6.93;;;6.33;;
27983;SDS011;15317;50.360;8.726;2024-03-02T17:13:03;6.83;;;6.23;;
27983;SDS011;15317;50.360;8.726;2024-03-02T17:18:06;6.90;;;6.30;;
27983;SDS011;15317;50.360;8.726;2024-03-02T17:23:11;8.00;;;7.30;;
27983;SDS011;15317;50.360;8.726;2024-03-02T17:28:20;8.90;;;8.07;;
27983;SDS011;15317;50.360;8.726;2024-03-02T17:33:25;9.20;;;8.33;;
27983;SDS011;15317;50.360;8.726;2024-03-02T17:38:30;8.77;;;7.73;;
27983;SDS011;15317;50.360;8.726;2024-03-02T17:43:33;8.80;;;8.00;;
27983;SDS011;15317;50.360;8.726;2024-03-02T17:48:37;11.30;;;9.07;;
27983;SDS011;15317;50.360;8.726;2024-03-02T17:53:41;13.03;;;11.77;;
27983;SDS011;15317;50.360;8.726;2024-03-02T17:58:47;15.90;;;14.30;;
27983;SDS011;15317;50.360;8.726;2024-03-02T18:03:51;14.03;;;12.73;;
27983;SDS011;15317;50.360;8.726;2024-03-02T18:08:55;12.90;;;11.70;;
27983;SDS011;15317;50.360;8.726;2024-03-02T18:13:58;12.77;;;11.47;;
27983;SDS011;15317;50.360;8.726;2024-03-02T18:19:02;14.30;;;13.00;;
27983;SDS011;15317;50.360;8.726;2024-03-02T18:24:11;13.30;;;12.10;;
27983;SDS011;15317;50.360;8.726;2024-03-02T18:29:15;11.23;;;10.23;;
27983;SDS011;15317;50.360;8.726;2024-03-02T18:34:18;10.13;;;9.33;;
27983;SDS011;15317;50.360;8.726;2024-03-02T18:39:23;11.00;;;9.87;;
27983;SDS011;15317;50.360;8.726;2024-03-02T18:44:26;10.37;;;9.40;;
27983;SDS011;15317;50.360;8.726;2024-03-02T18:49:30;9.70;;;8.90;;
27983;SDS011;15317;50.360;8.726;2024-03-02T18:54:34;10.07;;;9.13;;
27983;SDS011;15317;50.360;8.726;2024-03-02T18:59:38;11.30;;;9.83;;
27983;SDS011;15317;50.360;8.726;2024-03-02T19:04:41;11.40;;;10.40;;
27983;SDS011;15317;50.360;8.726;2024-03-02T19:09:46;11.87;;;10.70;;
27983;SDS011;15317;50.360;8.726;2024-03-02T19:14:49;11.97;;;10.80;;
27983;SDS011;15317;50.360;8.726;2024-03-02T19:19:52;11.70;;;10.60;;
27983;SDS011;15317;50.360;8.726;2024-03-02T19:24:57;11.43;;;10.40;;
27983;SDS011;15317;50.360;8.726;2024-03-02T19:30:00;10.47;;;9.47;;
27983;SDS011;15317;50.360;8.726;2024-03-02T19:35:07;10.13;;;9.23;;
27983;SDS011;15317;50.360;8.726;2024-03-02T19:40:12;9.53;;;8.73;;
27983;SDS011;15317;50.360;8.726;2024-03-02T19:45:15;10.00;;;8.30;;
27983;SDS011;15317;50.360;8.726;2024-03-02T19:50:19;8.90;;;8.10;;
27983;SDS011;15317;50.360;8.726;2024-03-02T19:55:23;9.80;;;8.90;;
27983;SDS011;15317;50.360;8.726;2024-03-02T20:00:31;9.77;;;8.87;;
27983;SDS011;15317;50.360;8.726;2024-03-02T20:05:34;9.77;;;8.87;;
27983;SDS011;15317;50.360;8.726;2024-03-02T20:10:39;8.27;;;7.17;;
27983;SDS011;15317;50.360;8.726;2024-03-02T20:15:45;8.93;;;8.07;;
27983;SDS011;15317;50.360;8.726;2024-03-02T20:20:48;9.50;;;8.47;;
27983;SDS011;15317;50.360;8.726;2024-03-02T20:25:53;9.80;;;8.83;;
27983;SDS011;15317;50.360;8.726;2024-03-02T20:30:59;9.67;;;8.87;;
27983;SDS011;15317;50.360;8.726;2024-03-02T20:36:03;10.33;;;9.33;;
27983;SDS011;15317;50.360;8.726;2024-03-02T20:41:14;9.63;;;8.73;;
27983;SDS011;15317;50.360;8.726;2024-03-02T20:46:19;10.30;;;9.17;;
27983;SDS011;15317;50.360;8.726;2024-03-02T20:51:22;11.00;;;9.90;;
27983;SDS011;15317;50.360;8.726;2024-03-02T20:56:31;12.37;;;11.17;;
27983;SDS011;15317;50.360;8.726;2024-03-02T21:01:37;11.83;;;10.67;;
27983;SDS011;15317;50.360;8.726;2024-03-02T21:06:41;13.17;;;11.87;;
27983;SDS011;15317;50.360;8.726;2024-03-02T21:11:47;12.10;;;10.93;;
27983;SDS011;15317;50.360;8.726;2024-03-02T21:16:50;12.80;;;11.20;;
27983;SDS011;15317;50.360;8.726;2024-03-02T21:21:54;12.37;;;11.07;;
27983;SDS011;15317;50.360;8.726;2024-03-02T21:27:01;13.13;;;11.83;;
27983;SDS011;15317;50.360;8.726;2024-03-02T21:32:05;13.53;;;12.23;;
27983;SDS011;15317;50.360;8.726;2024-03-02T21:37:08;13.97;;;12.57;;
27983;SDS011;15317;50.360;8.726;2024-03-02T21:42:13;13.27;;;11.97;;
27983;SDS011;15317;50.360;8.726;2024-03-02T21:47:16;14.07;;;12.67;;
27983;SDS011;15317;50.360;8.726;2024-03-02T21:52:20;14.57;;;12.97;;
27983;SDS011;15317;50.360;8.726;2024-03-02T21:57:25;14.80;;;12.53;;
27983;SDS011;15317;50.360;8.726;2024-03-02T22:02:29;14.13;;;12.73;;
27983;SDS011;15317;50.360;8.726;2024-03-02T22:07:32;13.33;;;12.03;;
27983;SDS011;15317;50.360;8.726;2024-03-02T22:12:37;13.97;;;12.33;;
27983;SDS011;15317;50.360;8.726;2024-03-02T22:17:40;14.23;;;12.83;;
27983;SDS011;15317;50.360;8.726;2024-03-02T22:22:43;14.03;;;12.63;;
27983;SDS011;15317;50.360;8.726;2024-03-02T22:27:48;14.83;;;13.37;;
27983;SDS011;15317;50.360;8.726;2024-03-02T22:32:57;14.47;;;12.97;;
27983;SDS011;15317;50.360;8.726;2024-03-02T22:38:00;13.93;;;12.53;;
27983;SDS011;15317;50.360;8.726;2024-03-02T22:43:04;16.50;;;12.93;;
27983;SDS011;15317;50.360;8.726;2024-03-02T22:48:07;14.53;;;12.97;;
27983;SDS011;15317;50.360;8.726;2024-03-02T22:53:11;15.33;;;13.10;;
27983;SDS011;15317;50.360;8.726;2024-03-02T22:58:15;15.00;;;13.40;;
27983;SDS011;15317;50.360;8.726;2024-03-02T23:03:19;14.60;;;12.93;;
27983;SDS011;15317;50.360;8.726;2024-03-02T23:08:22;13.83;;;12.43;;
27983;SDS011;15317;50.360;8.726;2024-03-02T23:13:27;14.50;;;13.00;;
27983;SDS011;15317;50.360;8.726;2024-03-02T23:18:30;16.63;;;13.17;;
27983;SDS011;15317;50.360;8.726;2024-03-02T23:23:34;15.23;;;13.63;;
27983;SDS011;15317;50.360;8.726;2024-03-02T23:28:38;19.17;;;14.27;;
27983;SDS011;15317;50.360;8.726;2024-03-02T23:33:41;16.07;;;14.37;;
27983;SDS011;15317;50.360;8.726;2024-03-02T23:38:45;15.90;;;14.17;;
27983;SDS011;15317;50.360;8.726;2024-03-02T23:43:50;18.23;;;14.10;;
27983;SDS011;15317;50.360;8.726;2024-03-02T23:48:53;17.07;;;15.13;;
27983;SDS011;15317;50.360;8.726;2024-03-02T23:53:56;18.13;;;15.63;;
27983;SDS011;15317;50.360;8.726;2024-03-02T23:59:01;16.80;;;15.03;;
